createdAt,value
2023-03-12T00:01:19.496Z,20.40
2023-03-12T00:03:47.360Z,17.90
2023-03-12T00:06:14.575Z,25.60
2023-03-12T00:08:41.784Z,16.70
2023-03-12T00:11:10.738Z,17.90
2023-03-12T00:13:38.116Z,17.70
2023-03-12T00:16:10.442Z,18.00
2023-03-12T00:18:37.553Z,16.70
2023-03-12T00:21:05.753Z,16.60
2023-03-12T00:23:32.817Z,21.70
2023-03-12T00:26:04.966Z,20.00
2023-03-12T00:28:31.817Z,18.10
2023-03-12T00:30:58.637Z,16.90
2023-03-12T00:33:26.095Z,21.00
2023-03-12T00:35:53.927Z,15.90
2023-03-12T00:38:20.504Z,18.20
2023-03-12T00:40:47.332Z,15.20
2023-03-12T00:43:14.903Z,25.00
2023-03-12T00:45:41.422Z,17.60
2023-03-12T00:48:07.889Z,19.70
2023-03-12T00:50:34.316Z,19.50
2023-03-12T00:53:00.873Z,17.00
2023-03-12T00:55:27.594Z,16.50
2023-03-12T00:57:54.262Z,22.90
2023-03-12T01:00:21.369Z,20.50
2023-03-12T01:02:48.186Z,18.30
2023-03-12T01:05:15.548Z,19.40
2023-03-12T01:07:42.717Z,21.80
2023-03-12T01:10:11.871Z,16.80
2023-03-12T01:12:38.586Z,19.20
2023-03-12T01:15:05.828Z,15.70
2023-03-12T01:17:32.274Z,18.30
2023-03-12T01:19:58.833Z,17.10
2023-03-12T01:22:25.528Z,19.20
2023-03-12T01:24:51.973Z,18.60
2023-03-12T01:27:18.505Z,17.90
2023-03-12T01:29:45.330Z,19.10
2023-03-12T01:32:11.863Z,24.00
2023-03-12T01:34:38.333Z,20.00
2023-03-12T01:37:05.157Z,18.70
2023-03-12T01:39:31.625Z,17.00
2023-03-12T01:41:58.205Z,16.60
2023-03-12T01:44:24.779Z,17.20
2023-03-12T01:46:51.203Z,20.30
2023-03-12T01:49:33.345Z,16.60
2023-03-12T01:52:04.789Z,17.80
2023-03-12T01:54:37.551Z,18.00
2023-03-12T01:57:06.376Z,16.90
2023-03-12T01:59:39.142Z,17.40
2023-03-12T02:02:06.955Z,17.40
2023-03-12T02:04:34.872Z,16.00
2023-03-12T02:07:08.703Z,18.60
2023-03-12T02:09:39.894Z,14.30
2023-03-12T02:12:07.913Z,17.00
2023-03-12T02:14:34.990Z,16.10
2023-03-12T02:17:02.511Z,16.20
2023-03-12T02:20:12.813Z,14.70
2023-03-12T02:22:42.504Z,14.70
2023-03-12T02:25:36.709Z,18.50
2023-03-12T02:28:07.551Z,16.60
2023-03-12T02:30:34.300Z,14.30
2023-03-12T02:33:05.506Z,17.50
2023-03-12T02:35:32.408Z,18.10
2023-03-12T02:37:59.133Z,19.50
2023-03-12T02:40:39.290Z,15.80
2023-03-12T02:43:07.775Z,17.90
2023-03-12T02:45:36.985Z,17.70
2023-03-12T02:48:08.214Z,16.90
2023-03-12T02:50:34.645Z,15.00
2023-03-12T02:53:01.079Z,19.10
2023-03-12T02:55:27.624Z,18.10
2023-03-12T02:57:54.097Z,16.40
2023-03-12T03:00:21.099Z,19.40
2023-03-12T03:02:47.625Z,20.00
2023-03-12T03:05:14.241Z,18.40
2023-03-12T03:07:40.943Z,18.90
2023-03-12T03:10:08.516Z,16.40
2023-03-12T03:12:36.747Z,16.10
2023-03-12T03:15:05.085Z,21.40
2023-03-12T03:17:31.945Z,20.60
2023-03-12T03:19:58.591Z,18.10
2023-03-12T03:22:25.240Z,24.90
2023-03-12T03:24:53.344Z,26.20
2023-03-12T03:27:20.096Z,23.80
2023-03-12T03:29:46.821Z,24.80
2023-03-12T03:32:13.359Z,21.00
2023-03-12T03:34:40.040Z,18.70
2023-03-12T03:37:06.717Z,18.00
2023-03-12T03:39:33.298Z,19.00
2023-03-12T03:42:00.118Z,19.20
2023-03-12T03:44:26.604Z,18.20
2023-03-12T03:46:53.560Z,18.30
2023-03-12T03:49:20.099Z,17.80
2023-03-12T03:51:46.925Z,17.30
2023-03-12T03:54:13.713Z,19.30
2023-03-12T03:56:40.983Z,19.90
2023-03-12T03:59:07.511Z,19.90
2023-03-12T04:01:34.063Z,17.60
2023-03-12T04:04:00.819Z,21.90
2023-03-12T04:06:27.374Z,22.90
2023-03-12T04:08:53.905Z,20.00
2023-03-12T04:11:21.986Z,17.50
2023-03-12T04:13:49.637Z,22.30
2023-03-12T04:16:17.003Z,22.20
2023-03-12T04:18:44.558Z,21.00
2023-03-12T04:21:13.357Z,21.70
2023-03-12T04:23:40.259Z,20.40
2023-03-12T04:26:07.838Z,23.40
2023-03-12T04:28:35.281Z,24.60
2023-03-12T04:31:04.645Z,24.90
2023-03-12T04:33:34.753Z,24.60
2023-03-12T04:36:01.527Z,31.20
2023-03-12T04:38:28.671Z,33.70
2023-03-12T04:41:07.492Z,32.00
2023-03-12T04:43:34.757Z,33.30
2023-03-12T04:46:02.086Z,23.20
2023-03-12T04:48:28.871Z,25.90
2023-03-12T04:50:55.712Z,29.40
2023-03-12T04:53:22.777Z,28.60
2023-03-12T04:55:49.311Z,30.70
2023-03-12T04:58:16.722Z,34.60
2023-03-12T05:00:43.502Z,34.10
2023-03-12T05:03:10.094Z,33.00
2023-03-12T05:05:36.768Z,26.40
2023-03-12T05:08:04.729Z,26.30
2023-03-12T05:10:31.976Z,26.40
2023-03-12T05:12:58.836Z,22.90
2023-03-12T05:15:25.994Z,23.70
2023-03-12T05:17:54.767Z,20.00
2023-03-12T05:20:21.504Z,21.60
2023-03-12T05:22:48.081Z,13.90
2023-03-12T05:25:14.627Z,18.60
2023-03-12T05:27:41.085Z,19.10
2023-03-12T05:30:08.233Z,16.60
2023-03-12T05:32:34.743Z,14.30
2023-03-12T05:35:01.421Z,14.40
2023-03-12T05:37:28.274Z,13.60
2023-03-12T05:39:54.922Z,14.50
2023-03-12T05:42:21.518Z,13.40
2023-03-12T05:44:47.976Z,11.30
2023-03-12T05:47:14.392Z,18.90
2023-03-12T05:49:40.871Z,17.60
2023-03-12T05:52:07.486Z,20.20
2023-03-12T05:54:34.287Z,15.20
2023-03-12T05:57:00.809Z,14.10
2023-03-12T05:59:27.376Z,11.30
2023-03-12T06:01:53.978Z,9.40
2023-03-12T06:04:20.529Z,9.30
2023-03-12T06:06:47.940Z,9.30
2023-03-12T06:09:14.366Z,9.90
2023-03-12T06:11:40.919Z,8.30
2023-03-12T06:14:07.334Z,9.40
2023-03-12T06:16:33.784Z,8.50
2023-03-12T06:19:02.389Z,8.20
2023-03-12T06:21:32.120Z,9.30
2023-03-12T06:23:59.377Z,10.20
2023-03-12T06:26:26.738Z,8.10
2023-03-12T06:28:54.426Z,9.10
2023-03-12T06:31:22.410Z,9.10
2023-03-12T06:33:49.002Z,9.90
2023-03-12T06:36:15.556Z,8.00
2023-03-12T06:38:41.992Z,7.00
2023-03-12T06:41:15.113Z,8.40
2023-03-12T06:43:42.751Z,5.70
2023-03-12T06:46:13.166Z,7.00
2023-03-12T06:48:39.778Z,5.50
2023-03-12T06:51:09.978Z,7.40
2023-03-12T06:53:36.711Z,6.40
2023-03-12T06:56:04.334Z,6.60
2023-03-12T06:58:31.396Z,7.50
2023-03-12T07:00:58.130Z,8.30
2023-03-12T07:03:25.398Z,7.80
2023-03-12T07:05:52.148Z,7.60
2023-03-12T07:08:18.804Z,9.90
2023-03-12T07:10:46.574Z,8.30
2023-03-12T07:13:13.714Z,8.40
2023-03-12T07:15:40.580Z,7.80
2023-03-12T07:18:12.048Z,9.90
2023-03-12T07:23:09.354Z,8.90
2023-03-12T07:25:38.011Z,6.50
2023-03-12T07:28:04.675Z,7.90
2023-03-12T07:30:31.360Z,7.30
2023-03-12T07:32:58.147Z,8.70
2023-03-12T07:35:24.828Z,6.90
2023-03-12T07:37:51.324Z,9.20
2023-03-12T07:40:18.043Z,8.10
2023-03-12T07:42:44.576Z,8.20
2023-03-12T07:45:11.541Z,7.20
2023-03-12T07:47:38.247Z,7.30
2023-03-12T07:50:05.130Z,8.90
2023-03-12T07:52:31.882Z,8.00
2023-03-12T07:54:58.667Z,8.10
2023-03-12T07:57:25.322Z,7.40
2023-03-12T07:59:52.450Z,7.00
2023-03-12T08:02:19.218Z,4.90
2023-03-12T08:04:46.936Z,5.50
2023-03-12T08:07:14.264Z,10.80
2023-03-12T08:09:41.553Z,7.20
2023-03-12T08:12:08.900Z,4.40
2023-03-12T08:14:36.397Z,6.40
2023-03-12T08:17:02.991Z,5.50
2023-03-12T08:19:29.422Z,8.00
2023-03-12T08:21:55.824Z,6.00
2023-03-12T08:24:22.424Z,6.50
2023-03-12T08:26:48.974Z,5.00
2023-03-12T08:29:17.371Z,6.40
2023-03-12T08:32:01.562Z,7.70
2023-03-12T08:34:30.623Z,8.60
2023-03-12T08:36:57.592Z,6.50
2023-03-12T08:39:24.171Z,7.00
2023-03-12T08:41:50.637Z,8.20
2023-03-12T08:44:17.203Z,8.70
2023-03-12T08:46:43.603Z,6.60
2023-03-12T08:49:13.466Z,4.90
2023-03-12T08:51:40.114Z,7.10
2023-03-12T08:54:06.559Z,8.50
2023-03-12T08:56:33.298Z,4.90
2023-03-12T08:58:59.946Z,5.00
2023-03-12T09:01:26.485Z,5.80
2023-03-12T09:03:52.944Z,8.10
2023-03-12T09:06:19.730Z,6.20
2023-03-12T09:08:46.931Z,8.10
2023-03-12T09:11:15.572Z,5.90
2023-03-12T09:14:03.953Z,4.40
2023-03-12T09:16:29.743Z,5.10
2023-03-12T09:18:56.366Z,4.80
2023-03-12T09:21:22.920Z,6.40
2023-03-12T09:23:49.336Z,5.00
2023-03-12T09:26:15.916Z,4.70
2023-03-12T09:28:42.446Z,3.90
2023-03-12T09:31:09.062Z,4.90
2023-03-12T09:33:35.532Z,4.50
2023-03-12T09:36:02.863Z,4.60
2023-03-12T09:38:30.358Z,4.50
2023-03-12T09:40:56.895Z,3.60
2023-03-12T09:43:31.701Z,7.10
2023-03-12T09:45:59.812Z,5.50
2023-03-12T09:48:32.579Z,5.00
2023-03-12T09:51:02.885Z,4.60
2023-03-12T09:53:40.023Z,5.10
2023-03-12T09:56:14.568Z,5.20
2023-03-12T09:58:41.385Z,6.10
2023-03-12T10:01:18.855Z,7.90
2023-03-12T10:03:51.592Z,7.20
2023-03-12T10:06:35.397Z,4.10
2023-03-12T10:09:20.832Z,4.60
2023-03-12T10:12:09.698Z,5.80
2023-03-12T10:14:48.513Z,4.40
2023-03-12T10:17:15.189Z,4.00
2023-03-12T10:19:56.066Z,3.80
2023-03-12T10:22:49.684Z,4.20
2023-03-12T10:25:19.092Z,4.70
2023-03-12T10:27:50.405Z,9.60
2023-03-12T10:33:01.135Z,3.70
2023-03-12T10:35:29.293Z,6.60
2023-03-12T10:38:04.569Z,3.00
2023-03-12T10:40:36.701Z,4.70
2023-03-12T10:43:04.699Z,4.40
2023-03-12T10:45:34.731Z,3.90
2023-03-12T10:48:07.680Z,7.60
2023-03-12T10:50:38.096Z,5.70
2023-03-12T10:53:22.057Z,7.10
2023-03-12T10:56:01.580Z,4.30
2023-03-12T10:58:33.499Z,9.00
2023-03-12T11:01:02.017Z,7.30
2023-03-12T11:03:29.771Z,4.60
2023-03-12T11:05:59.667Z,7.30
2023-03-12T11:08:29.526Z,4.90
2023-03-12T11:10:58.513Z,5.90
2023-03-12T11:13:29.561Z,4.40
2023-03-12T11:15:58.868Z,8.10
2023-03-12T11:18:35.575Z,4.60
2023-03-12T11:21:11.203Z,5.00
2023-03-12T11:23:41.235Z,5.70
2023-03-12T11:26:23.327Z,4.60
2023-03-12T11:29:01.314Z,5.10
2023-03-12T11:31:37.726Z,8.20
2023-03-12T11:34:27.790Z,5.90
2023-03-12T11:37:19.220Z,7.00
2023-03-12T11:40:17.408Z,7.40
2023-03-12T11:43:09.050Z,5.90
2023-03-12T11:45:54.904Z,9.00
2023-03-12T11:48:42.376Z,3.40
2023-03-12T11:51:17.969Z,4.30
2023-03-12T11:53:53.703Z,4.30
2023-03-12T11:56:33.909Z,3.00
2023-03-12T11:59:23.061Z,6.30
2023-03-12T12:02:11.151Z,5.40
2023-03-12T12:05:15.027Z,5.00
2023-03-12T12:08:03.084Z,7.90
2023-03-12T12:10:54.415Z,6.50
2023-03-12T12:13:27.315Z,9.60
2023-03-12T12:16:21.661Z,6.80
2023-03-12T12:18:57.684Z,11.90
2023-03-12T12:21:49.427Z,17.10
2023-03-12T12:24:28.430Z,8.90
2023-03-12T12:27:15.132Z,6.10
2023-03-12T12:30:09.948Z,16.10
2023-03-12T12:32:42.854Z,3.60
2023-03-12T12:35:41.543Z,4.80
2023-03-12T12:38:23.290Z,6.50
2023-03-12T12:40:49.723Z,11.70
2023-03-12T12:43:39.414Z,3.50
2023-03-12T12:46:16.198Z,4.50
2023-03-12T12:48:48.685Z,4.40
2023-03-12T12:51:19.898Z,6.50
2023-03-12T12:53:46.368Z,4.40
2023-03-12T12:56:20.076Z,6.20
2023-03-12T12:59:25.087Z,4.50
2023-03-12T13:01:55.374Z,5.10
2023-03-12T13:04:27.046Z,6.60
2023-03-12T13:07:00.850Z,3.30
2023-03-12T13:09:38.346Z,5.80
2023-03-12T13:12:33.584Z,7.30
2023-03-12T13:15:02.459Z,6.70
2023-03-12T13:17:30.469Z,7.20
2023-03-12T13:20:11.780Z,5.50
2023-03-12T13:22:53.665Z,4.50
2023-03-12T13:25:39.878Z,6.30
2023-03-12T13:28:30.399Z,5.00
2023-03-12T13:30:59.537Z,2.50
2023-03-12T13:33:46.713Z,4.80
2023-03-12T13:36:16.127Z,3.50
2023-03-12T13:39:06.029Z,5.40
2023-03-12T13:41:46.199Z,3.20
2023-03-12T13:44:32.293Z,5.70
2023-03-12T13:47:10.953Z,4.90
2023-03-12T13:49:56.504Z,4.70
2023-03-12T13:52:26.690Z,3.40
2023-03-12T13:55:14.562Z,3.20
2023-03-12T13:57:45.651Z,8.30
2023-03-12T14:00:21.395Z,2.20
2023-03-12T14:02:59.841Z,4.10
2023-03-12T14:05:28.392Z,3.20
2023-03-12T14:08:03.877Z,3.90
2023-03-12T14:10:43.960Z,4.40
2023-03-12T14:13:25.819Z,4.70
2023-03-12T14:16:16.262Z,4.50
2023-03-12T14:18:45.670Z,12.20
2023-03-12T14:21:16.473Z,8.80
2023-03-12T14:24:05.662Z,4.90
2023-03-12T14:26:35.505Z,4.40
2023-03-12T14:29:11.008Z,4.70
2023-03-12T14:31:38.657Z,4.40
2023-03-12T14:34:20.789Z,3.30
2023-03-12T14:37:15.606Z,4.70
2023-03-12T14:39:50.831Z,3.30
2023-03-12T14:42:36.697Z,10.00
2023-03-12T14:45:06.175Z,5.30
2023-03-12T14:47:40.536Z,2.40
2023-03-12T14:50:07.722Z,3.70
2023-03-12T14:52:34.260Z,3.10
2023-03-12T14:55:04.773Z,3.80
2023-03-12T14:57:31.353Z,5.40
2023-03-12T15:00:00.449Z,3.70
2023-03-12T15:02:31.651Z,3.00
2023-03-12T15:05:01.381Z,4.20
2023-03-12T15:07:33.055Z,4.60
2023-03-12T15:10:00.766Z,3.30
2023-03-12T15:12:34.104Z,3.90
2023-03-12T15:15:06.485Z,6.30
2023-03-12T15:17:34.527Z,6.40
2023-03-12T15:20:05.055Z,5.60
2023-03-12T15:22:32.769Z,2.80
2023-03-12T15:25:15.488Z,3.10
2023-03-12T15:27:42.037Z,7.40
2023-03-12T15:30:26.514Z,3.20
2023-03-12T15:33:03.973Z,6.10
2023-03-12T15:35:31.215Z,10.10
2023-03-12T15:37:58.127Z,4.70
2023-03-12T15:40:30.688Z,3.80
2023-03-12T15:42:59.664Z,5.90
2023-03-12T15:45:36.049Z,5.10
2023-03-12T15:48:05.836Z,3.70
2023-03-12T15:50:44.034Z,5.80
2023-03-12T15:53:13.889Z,5.70
2023-03-12T15:55:41.259Z,6.90
2023-03-12T15:58:26.419Z,9.10
2023-03-12T16:00:53.365Z,15.10
2023-03-12T16:03:21.960Z,10.20
2023-03-12T16:05:51.574Z,7.00
2023-03-12T16:08:22.627Z,4.80
2023-03-12T16:10:50.312Z,5.60
2023-03-12T16:13:19.038Z,5.70
2023-03-12T16:15:47.814Z,4.60
2023-03-12T16:18:17.608Z,5.80
2023-03-12T16:20:45.434Z,8.40
2023-03-12T16:23:13.137Z,5.80
2023-03-12T16:25:43.522Z,7.40
2023-03-12T16:28:14.592Z,8.20
2023-03-12T16:30:41.192Z,8.30
2023-03-12T16:33:09.485Z,8.20
2023-03-12T16:35:36.361Z,8.90
2023-03-12T16:38:03.693Z,9.50
2023-03-12T16:40:35.453Z,16.70
2023-03-12T16:43:04.148Z,13.10
2023-03-12T16:45:33.940Z,15.30
2023-03-12T16:48:05.017Z,18.50
2023-03-12T16:50:31.798Z,17.50
2023-03-12T16:52:58.617Z,24.60
2023-03-12T16:55:30.488Z,22.90
2023-03-12T16:58:01.617Z,37.00
2023-03-12T17:00:31.047Z,36.60
2023-03-12T17:02:59.023Z,44.00
2023-03-12T17:05:27.789Z,100.70
2023-03-12T17:07:55.189Z,202.30
2023-03-12T17:10:23.656Z,86.50
2023-03-12T17:12:50.879Z,99.00
2023-03-12T17:15:21.304Z,76.50
2023-03-12T17:17:49.252Z,87.40
2023-03-12T17:20:19.097Z,92.50
2023-03-12T17:22:46.433Z,67.80
2023-03-12T17:25:26.281Z,62.50
2023-03-12T17:27:53.541Z,56.40
2023-03-12T17:30:20.508Z,56.10
2023-03-12T17:32:47.027Z,62.40
2023-03-12T17:35:14.242Z,76.40
2023-03-12T17:37:40.863Z,119.00
2023-03-12T17:40:08.563Z,78.90
2023-03-12T17:42:36.023Z,85.30
2023-03-12T17:45:07.339Z,80.10
2023-03-12T17:47:34.000Z,86.90
2023-03-12T17:50:00.555Z,84.90
2023-03-12T17:52:27.076Z,105.70
2023-03-12T17:54:53.778Z,131.40
2023-03-12T17:57:20.298Z,96.10
2023-03-12T17:59:46.731Z,117.60
2023-03-12T18:02:14.125Z,83.70
2023-03-12T18:04:41.029Z,96.60
2023-03-12T18:07:07.894Z,123.70
2023-03-12T18:09:34.353Z,272.40
2023-03-12T18:12:01.016Z,398.70
2023-03-12T18:14:28.446Z,304.00
2023-03-12T18:16:54.871Z,244.00
2023-03-12T18:19:21.585Z,245.00
2023-03-12T18:21:48.181Z,238.40
2023-03-12T18:24:15.130Z,216.50
2023-03-12T18:26:41.979Z,226.40
2023-03-12T18:29:08.522Z,224.50
2023-03-12T18:31:34.965Z,229.50
2023-03-12T18:34:01.577Z,187.70
2023-03-12T18:36:28.261Z,191.10
2023-03-12T18:38:54.919Z,183.20
2023-03-12T18:41:21.559Z,159.60
2023-03-12T18:43:48.229Z,140.50
2023-03-12T18:46:14.734Z,134.00
2023-03-12T18:48:43.971Z,185.00
2023-03-12T18:51:11.036Z,173.00
2023-03-12T18:53:37.513Z,159.50
2023-03-12T18:56:04.637Z,154.60
2023-03-12T18:58:31.058Z,156.40
2023-03-12T19:00:58.562Z,170.80
2023-03-12T19:03:26.314Z,161.50
2023-03-12T19:06:04.737Z,160.60
2023-03-12T19:08:31.698Z,168.90
2023-03-12T19:10:58.369Z,244.30
2023-03-12T19:13:25.411Z,189.10
2023-03-12T19:15:58.636Z,166.90
2023-03-12T19:18:25.342Z,153.50
2023-03-12T19:20:51.796Z,129.80
2023-03-12T19:23:18.572Z,123.10
2023-03-12T19:25:45.292Z,155.80
2023-03-12T19:28:11.929Z,132.00
2023-03-12T19:30:38.488Z,131.30
2023-03-12T19:33:05.144Z,136.60
2023-03-12T19:35:32.060Z,140.30
2023-03-12T19:37:58.738Z,124.80
2023-03-12T19:40:26.072Z,120.00
2023-03-12T19:42:52.543Z,148.80
2023-03-12T19:45:19.091Z,151.10
2023-03-12T19:47:45.718Z,154.50
2023-03-12T19:50:12.585Z,154.70
2023-03-12T19:52:39.229Z,152.00
2023-03-12T19:55:05.983Z,156.10
2023-03-12T19:57:33.988Z,359.70
2023-03-12T20:00:00.711Z,299.40
2023-03-12T20:02:27.545Z,206.30
2023-03-12T20:04:54.475Z,176.60
2023-03-12T20:07:21.060Z,174.50
2023-03-12T20:09:47.531Z,131.10
2023-03-12T20:12:14.059Z,121.30
2023-03-12T20:14:42.760Z,93.40
2023-03-12T20:17:10.031Z,90.40
2023-03-12T20:19:36.665Z,98.70
2023-03-12T20:22:03.392Z,120.70
2023-03-12T20:24:30.127Z,108.10
2023-03-12T20:26:56.889Z,137.90
2023-03-12T20:29:24.048Z,167.40
2023-03-12T20:31:51.019Z,253.90
2023-03-12T20:34:19.087Z,351.60
2023-03-12T20:36:45.632Z,177.10
2023-03-12T20:39:12.201Z,152.60
2023-03-12T20:41:39.150Z,142.70
2023-03-12T20:44:05.607Z,134.30
2023-03-12T20:46:32.344Z,124.10
2023-03-12T20:48:58.981Z,126.60
2023-03-12T20:51:25.775Z,125.80
2023-03-12T20:53:52.478Z,129.10
2023-03-12T20:56:19.029Z,121.60
2023-03-12T20:58:45.549Z,126.10
2023-03-12T21:01:12.104Z,133.10
2023-03-12T21:03:38.584Z,150.00
2023-03-12T21:06:05.719Z,187.20
2023-03-12T21:08:36.496Z,197.70
2023-03-12T21:11:07.418Z,175.80
2023-03-12T21:13:34.473Z,161.40
2023-03-12T21:16:00.906Z,106.10
2023-03-12T21:18:27.561Z,188.20
2023-03-12T21:20:54.453Z,174.40
2023-03-12T21:23:21.493Z,133.40
2023-03-12T21:25:48.124Z,118.60
2023-03-12T21:28:15.100Z,104.70
2023-03-12T21:30:41.544Z,104.40
2023-03-12T21:33:08.154Z,126.80
2023-03-12T21:35:34.628Z,134.40
2023-03-12T21:38:01.234Z,206.30
2023-03-12T21:40:27.989Z,166.90
2023-03-12T21:42:54.529Z,176.00
2023-03-12T21:45:20.933Z,133.20
2023-03-12T21:47:47.437Z,119.60
2023-03-12T21:50:13.967Z,106.30
2023-03-12T21:52:43.368Z,106.80
2023-03-12T21:55:11.048Z,98.60
2023-03-12T21:57:37.595Z,132.70
2023-03-12T22:00:05.150Z,120.90
2023-03-12T22:02:32.176Z,122.70
2023-03-12T22:04:59.597Z,104.10
2023-03-12T22:07:26.133Z,114.80
2023-03-12T22:09:52.732Z,99.30
2023-03-12T22:12:19.153Z,111.50
2023-03-12T22:14:45.722Z,107.80
2023-03-12T22:17:12.202Z,113.20
2023-03-12T22:19:40.379Z,112.40
2023-03-12T22:22:09.097Z,107.90
2023-03-12T22:24:35.588Z,115.20
2023-03-12T22:27:02.210Z,109.30
2023-03-12T22:29:29.250Z,111.50
2023-03-12T22:31:55.993Z,115.40
2023-03-12T22:34:22.527Z,101.80
2023-03-12T22:36:49.078Z,101.80
2023-03-12T22:39:18.607Z,108.40
2023-03-12T22:41:49.450Z,97.40
2023-03-12T22:44:16.271Z,71.40
2023-03-12T22:46:42.958Z,119.60
2023-03-12T22:49:09.528Z,120.30
2023-03-12T22:51:36.029Z,116.80
2023-03-12T22:54:02.626Z,128.30
2023-03-12T22:56:29.442Z,124.60
2023-03-12T22:58:55.972Z,135.20
2023-03-12T23:01:23.745Z,137.90
2023-03-12T23:03:50.713Z,148.40
2023-03-12T23:06:26.303Z,147.40
2023-03-12T23:08:54.138Z,129.30
2023-03-12T23:11:20.829Z,111.80
2023-03-12T23:13:47.791Z,121.30
2023-03-12T23:16:18.189Z,112.40
2023-03-12T23:18:45.739Z,116.40
2023-03-12T23:21:21.188Z,119.00
2023-03-12T23:23:48.436Z,120.10
2023-03-12T23:26:18.346Z,114.70
2023-03-12T23:28:44.996Z,118.70
2023-03-12T23:31:11.550Z,109.00
2023-03-12T23:33:38.305Z,91.10
2023-03-12T23:36:14.494Z,93.40
2023-03-12T23:38:41.005Z,84.90
2023-03-12T23:41:15.172Z,77.90
2023-03-12T23:43:42.129Z,81.80
2023-03-12T23:46:10.468Z,73.40
2023-03-12T23:48:38.597Z,72.90
2023-03-12T23:51:16.113Z,69.20
2023-03-12T23:53:44.841Z,72.20
2023-03-12T23:56:17.664Z,78.10
2023-03-12T23:58:44.539Z,67.10
